sensor_id;sensor_type;location;lat;lon;timestamp;P1;durP1;ratioP1;P2;durP2;ratioP2
7829;SDS011;3960;51.86894000;5.39848000;2022-07-29T00:00:34;4.93;;;1.60;;
7829;SDS011;3960;51.86894000;5.39848000;2022-07-29T00:02:59;1.73;;;1.40;;
7829;SDS011;3960;51.86894000;5.39848000;2022-07-29T00:05:24;3.55;;;1.70;;
7829;SDS011;3960;51.86894000;5.39848000;2022-07-29T00:07:50;3.17;;;1.52;;
7829;SDS011;3960;51.86894000;5.39848000;2022-07-29T00:10:15;6.07;;;1.65;;
7829;SDS011;3960;51.86894000;5.39848000;2022-07-29T00:12:40;4.68;;;1.58;;
7829;SDS011;3960;51.86894000;5.39848000;2022-07-29T00:15:05;3.65;;;1.77;;
7829;SDS011;3960;51.86894000;5.39848000;2022-07-29T00:17:32;3.28;;;1.50;;
7829;SDS011;3960;51.86894000;5.39848000;2022-07-29T00:19:58;3.45;;;2.22;;
7829;SDS011;3960;51.86894000;5.39848000;2022-07-29T00:22:24;5.38;;;2.40;;
7829;SDS011;3960;51.86894000;5.39848000;2022-07-29T00:24:49;5.93;;;2.60;;
7829;SDS011;3960;51.86894000;5.39848000;2022-07-29T00:27:15;3.75;;;2.25;;
7829;SDS011;3960;51.86894000;5.39848000;2022-07-29T00:29:40;4.95;;;2.60;;
7829;SDS011;3960;51.86894000;5.39848000;2022-07-29T00:32:06;6.55;;;2.50;;
7829;SDS011;3960;51.86894000;5.39848000;2022-07-29T00:34:31;6.30;;;2.40;;
7829;SDS011;3960;51.86894000;5.39848000;2022-07-29T00:37:15;4.95;;;2.20;;
7829;SDS011;3960;51.86894000;5.39848000;2022-07-29T00:39:40;4.95;;;2.13;;
7829;SDS011;3960;51.86894000;5.39848000;2022-07-29T00:42:06;7.80;;;2.58;;
7829;SDS011;3960;51.86894000;5.39848000;2022-07-29T00:44:35;8.00;;;2.47;;
7829;SDS011;3960;51.86894000;5.39848000;2022-07-29T00:47:04;8.30;;;2.47;;
7829;SDS011;3960;51.86894000;5.39848000;2022-07-29T00:49:29;7.30;;;2.47;;
7829;SDS011;3960;51.86894000;5.39848000;2022-07-29T00:51:55;4.75;;;2.63;;
7829;SDS011;3960;51.86894000;5.39848000;2022-07-29T00:54:20;4.38;;;2.72;;
7829;SDS011;3960;51.86894000;5.39848000;2022-07-29T00:56:45;5.25;;;2.80;;
7829;SDS011;3960;51.86894000;5.39848000;2022-07-29T00:59:11;5.07;;;2.40;;
7829;SDS011;3960;51.86894000;5.39848000;2022-07-29T01:01:36;6.43;;;2.63;;
7829;SDS011;3960;51.86894000;5.39848000;2022-07-29T01:04:01;5.93;;;2.65;;
7829;SDS011;3960;51.86894000;5.39848000;2022-07-29T01:06:27;3.13;;;2.13;;
7829;SDS011;3960;51.86894000;5.39848000;2022-07-29T01:08:52;5.72;;;2.00;;
7829;SDS011;3960;51.86894000;5.39848000;2022-07-29T01:11:18;4.72;;;2.40;;
7829;SDS011;3960;51.86894000;5.39848000;2022-07-29T01:13:44;5.65;;;2.53;;
7829;SDS011;3960;51.86894000;5.39848000;2022-07-29T01:16:13;7.82;;;2.33;;
7829;SDS011;3960;51.86894000;5.39848000;2022-07-29T01:18:44;6.65;;;1.90;;
7829;SDS011;3960;51.86894000;5.39848000;2022-07-29T01:24:30;4.97;;;1.92;;
7829;SDS011;3960;51.86894000;5.39848000;2022-07-29T01:27:19;6.15;;;2.40;;
7829;SDS011;3960;51.86894000;5.39848000;2022-07-29T01:30:07;4.18;;;2.28;;
7829;SDS011;3960;51.86894000;5.39848000;2022-07-29T01:32:33;3.35;;;1.70;;
7829;SDS011;3960;51.86894000;5.39848000;2022-07-29T01:35:03;3.65;;;1.80;;
7829;SDS011;3960;51.86894000;5.39848000;2022-07-29T01:37:48;2.28;;;1.42;;
7829;SDS011;3960;51.86894000;5.39848000;2022-07-29T01:40:21;6.85;;;1.70;;
7829;SDS011;3960;51.86894000;5.39848000;2022-07-29T01:42:54;4.97;;;1.95;;
7829;SDS011;3960;51.86894000;5.39848000;2022-07-29T01:45:41;4.72;;;1.67;;
7829;SDS011;3960;51.86894000;5.39848000;2022-07-29T01:48:11;4.18;;;1.58;;
7829;SDS011;3960;51.86894000;5.39848000;2022-07-29T01:50:48;4.65;;;1.48;;
7829;SDS011;3960;51.86894000;5.39848000;2022-07-29T01:53:21;3.75;;;1.55;;
7829;SDS011;3960;51.86894000;5.39848000;2022-07-29T01:55:51;2.97;;;1.48;;
7829;SDS011;3960;51.86894000;5.39848000;2022-07-29T01:58:18;5.90;;;1.52;;
7829;SDS011;3960;51.86894000;5.39848000;2022-07-29T02:00:44;2.08;;;1.60;;
7829;SDS011;3960;51.86894000;5.39848000;2022-07-29T02:03:11;3.13;;;1.50;;
7829;SDS011;3960;51.86894000;5.39848000;2022-07-29T02:05:38;5.72;;;1.60;;
7829;SDS011;3960;51.86894000;5.39848000;2022-07-29T02:08:05;4.22;;;1.77;;
7829;SDS011;3960;51.86894000;5.39848000;2022-07-29T02:10:32;6.40;;;2.05;;
7829;SDS011;3960;51.86894000;5.39848000;2022-07-29T02:12:58;6.60;;;1.70;;
7829;SDS011;3960;51.86894000;5.39848000;2022-07-29T02:15:25;3.80;;;1.58;;
7829;SDS011;3960;51.86894000;5.39848000;2022-07-29T02:17:56;4.72;;;1.70;;
7829;SDS011;3960;51.86894000;5.39848000;2022-07-29T02:20:26;4.70;;;1.67;;
7829;SDS011;3960;51.86894000;5.39848000;2022-07-29T02:22:54;4.65;;;1.55;;
7829;SDS011;3960;51.86894000;5.39848000;2022-07-29T02:25:20;6.38;;;1.92;;
7829;SDS011;3960;51.86894000;5.39848000;2022-07-29T02:27:47;5.13;;;2.15;;
7829;SDS011;3960;51.86894000;5.39848000;2022-07-29T02:30:14;1.88;;;1.50;;
7829;SDS011;3960;51.86894000;5.39848000;2022-07-29T02:32:40;4.28;;;1.50;;
7829;SDS011;3960;51.86894000;5.39848000;2022-07-29T02:35:07;4.90;;;1.88;;
7829;SDS011;3960;51.86894000;5.39848000;2022-07-29T02:37:35;4.32;;;2.00;;
7829;SDS011;3960;51.86894000;5.39848000;2022-07-29T02:40:01;5.10;;;1.70;;
7829;SDS011;3960;51.86894000;5.39848000;2022-07-29T02:42:28;5.07;;;1.70;;
7829;SDS011;3960;51.86894000;5.39848000;2022-07-29T02:44:54;4.60;;;1.70;;
7829;SDS011;3960;51.86894000;5.39848000;2022-07-29T02:47:27;4.53;;;1.80;;
7829;SDS011;3960;51.86894000;5.39848000;2022-07-29T02:50:04;7.30;;;2.00;;
7829;SDS011;3960;51.86894000;5.39848000;2022-07-29T02:55:40;9.05;;;2.28;;
7829;SDS011;3960;51.86894000;5.39848000;2022-07-29T02:58:14;4.75;;;2.20;;
7829;SDS011;3960;51.86894000;5.39848000;2022-07-29T03:00:44;5.85;;;2.85;;
7829;SDS011;3960;51.86894000;5.39848000;2022-07-29T03:03:13;8.77;;;3.03;;
7829;SDS011;3960;51.86894000;5.39848000;2022-07-29T03:05:41;3.97;;;2.70;;
7829;SDS011;3960;51.86894000;5.39848000;2022-07-29T03:08:08;7.20;;;3.20;;
7829;SDS011;3960;51.86894000;5.39848000;2022-07-29T03:10:34;5.85;;;2.33;;
7829;SDS011;3960;51.86894000;5.39848000;2022-07-29T03:13:03;4.05;;;2.10;;
7829;SDS011;3960;51.86894000;5.39848000;2022-07-29T03:15:30;7.47;;;2.30;;
7829;SDS011;3960;51.86894000;5.39848000;2022-07-29T03:17:55;12.02;;;2.00;;
7829;SDS011;3960;51.86894000;5.39848000;2022-07-29T03:20:23;4.82;;;1.90;;
7829;SDS011;3960;51.86894000;5.39848000;2022-07-29T03:22:48;7.30;;;1.80;;
7829;SDS011;3960;51.86894000;5.39848000;2022-07-29T03:25:14;3.58;;;1.80;;
7829;SDS011;3960;51.86894000;5.39848000;2022-07-29T03:27:41;2.97;;;1.90;;
7829;SDS011;3960;51.86894000;5.39848000;2022-07-29T03:30:07;4.18;;;2.00;;
7829;SDS011;3960;51.86894000;5.39848000;2022-07-29T03:32:34;6.15;;;2.70;;
7829;SDS011;3960;51.86894000;5.39848000;2022-07-29T03:34:59;4.43;;;2.08;;
7829;SDS011;3960;51.86894000;5.39848000;2022-07-29T03:37:25;4.80;;;2.10;;
7829;SDS011;3960;51.86894000;5.39848000;2022-07-29T03:39:51;4.28;;;2.10;;
7829;SDS011;3960;51.86894000;5.39848000;2022-07-29T03:42:19;3.80;;;2.20;;
7829;SDS011;3960;51.86894000;5.39848000;2022-07-29T03:44:47;4.05;;;2.03;;
7829;SDS011;3960;51.86894000;5.39848000;2022-07-29T03:47:14;6.35;;;2.17;;
7829;SDS011;3960;51.86894000;5.39848000;2022-07-29T03:49:42;7.65;;;2.05;;
7829;SDS011;3960;51.86894000;5.39848000;2022-07-29T03:52:11;3.85;;;1.90;;
7829;SDS011;3960;51.86894000;5.39848000;2022-07-29T03:54:37;4.78;;;2.10;;
7829;SDS011;3960;51.86894000;5.39848000;2022-07-29T03:57:02;2.85;;;1.80;;
7829;SDS011;3960;51.86894000;5.39848000;2022-07-29T03:59:30;2.75;;;1.70;;
7829;SDS011;3960;51.86894000;5.39848000;2022-07-29T04:01:57;2.67;;;1.92;;
7829;SDS011;3960;51.86894000;5.39848000;2022-07-29T04:04:24;5.20;;;2.13;;
7829;SDS011;3960;51.86894000;5.39848000;2022-07-29T04:06:50;4.25;;;2.17;;
7829;SDS011;3960;51.86894000;5.39848000;2022-07-29T04:09:16;4.70;;;2.40;;
7829;SDS011;3960;51.86894000;5.39848000;2022-07-29T04:11:41;5.82;;;2.13;;
7829;SDS011;3960;51.86894000;5.39848000;2022-07-29T04:14:07;4.18;;;2.35;;
7829;SDS011;3960;51.86894000;5.39848000;2022-07-29T04:16:33;3.30;;;1.80;;
7829;SDS011;3960;51.86894000;5.39848000;2022-07-29T04:18:58;2.80;;;1.75;;
7829;SDS011;3960;51.86894000;5.39848000;2022-07-29T04:21:23;5.57;;;2.45;;
7829;SDS011;3960;51.86894000;5.39848000;2022-07-29T04:23:49;3.13;;;2.30;;
7829;SDS011;3960;51.86894000;5.39848000;2022-07-29T04:26:15;4.72;;;2.40;;
7829;SDS011;3960;51.86894000;5.39848000;2022-07-29T04:28:41;6.35;;;2.40;;
7829;SDS011;3960;51.86894000;5.39848000;2022-07-29T04:31:07;3.35;;;2.10;;
7829;SDS011;3960;51.86894000;5.39848000;2022-07-29T04:33:33;5.35;;;2.50;;
7829;SDS011;3960;51.86894000;5.39848000;2022-07-29T04:35:58;7.50;;;2.88;;
7829;SDS011;3960;51.86894000;5.39848000;2022-07-29T04:38:23;6.63;;;2.63;;
7829;SDS011;3960;51.86894000;5.39848000;2022-07-29T04:40:49;8.02;;;2.70;;
7829;SDS011;3960;51.86894000;5.39848000;2022-07-29T04:43:14;6.25;;;2.60;;
7829;SDS011;3960;51.86894000;5.39848000;2022-07-29T04:45:40;8.27;;;2.90;;
7829;SDS011;3960;51.86894000;5.39848000;2022-07-29T04:48:05;7.68;;;2.85;;
7829;SDS011;3960;51.86894000;5.39848000;2022-07-29T04:50:31;4.28;;;2.67;;
7829;SDS011;3960;51.86894000;5.39848000;2022-07-29T04:52:56;6.50;;;3.20;;
7829;SDS011;3960;51.86894000;5.39848000;2022-07-29T04:55:21;9.63;;;2.58;;
7829;SDS011;3960;51.86894000;5.39848000;2022-07-29T04:57:47;6.25;;;2.58;;
7829;SDS011;3960;51.86894000;5.39848000;2022-07-29T05:00:12;3.05;;;2.25;;
7829;SDS011;3960;51.86894000;5.39848000;2022-07-29T05:02:38;4.32;;;2.30;;
7829;SDS011;3960;51.86894000;5.39848000;2022-07-29T05:05:03;6.28;;;2.95;;
7829;SDS011;3960;51.86894000;5.39848000;2022-07-29T05:07:29;5.65;;;2.42;;
7829;SDS011;3960;51.86894000;5.39848000;2022-07-29T05:09:54;5.13;;;2.67;;
7829;SDS011;3960;51.86894000;5.39848000;2022-07-29T05:12:21;6.13;;;2.70;;
7829;SDS011;3960;51.86894000;5.39848000;2022-07-29T05:14:47;4.30;;;2.80;;
7829;SDS011;3960;51.86894000;5.39848000;2022-07-29T05:17:12;8.68;;;2.80;;
7829;SDS011;3960;51.86894000;5.39848000;2022-07-29T05:19:38;5.85;;;2.78;;
7829;SDS011;3960;51.86894000;5.39848000;2022-07-29T05:22:03;5.53;;;2.50;;
7829;SDS011;3960;51.86894000;5.39848000;2022-07-29T05:24:28;6.28;;;3.15;;
7829;SDS011;3960;51.86894000;5.39848000;2022-07-29T05:26:54;7.63;;;2.83;;
7829;SDS011;3960;51.86894000;5.39848000;2022-07-29T05:29:19;6.50;;;3.08;;
7829;SDS011;3960;51.86894000;5.39848000;2022-07-29T05:31:44;5.05;;;2.72;;
7829;SDS011;3960;51.86894000;5.39848000;2022-07-29T05:34:09;5.03;;;2.60;;
7829;SDS011;3960;51.86894000;5.39848000;2022-07-29T05:36:35;8.45;;;3.15;;
7829;SDS011;3960;51.86894000;5.39848000;2022-07-29T05:39:00;4.47;;;2.90;;
7829;SDS011;3960;51.86894000;5.39848000;2022-07-29T05:41:25;4.65;;;2.72;;
7829;SDS011;3960;51.86894000;5.39848000;2022-07-29T05:43:51;4.78;;;3.03;;
7829;SDS011;3960;51.86894000;5.39848000;2022-07-29T05:46:16;8.15;;;3.08;;
7829;SDS011;3960;51.86894000;5.39848000;2022-07-29T05:48:42;6.82;;;3.42;;
7829;SDS011;3960;51.86894000;5.39848000;2022-07-29T05:51:07;6.43;;;2.90;;
7829;SDS011;3960;51.86894000;5.39848000;2022-07-29T05:53:32;5.78;;;2.80;;
7829;SDS011;3960;51.86894000;5.39848000;2022-07-29T05:55:58;10.20;;;2.60;;
7829;SDS011;3960;51.86894000;5.39848000;2022-07-29T05:58:23;3.53;;;2.40;;
7829;SDS011;3960;51.86894000;5.39848000;2022-07-29T06:00:48;7.15;;;3.05;;
7829;SDS011;3960;51.86894000;5.39848000;2022-07-29T06:03:14;7.25;;;2.78;;
7829;SDS011;3960;51.86894000;5.39848000;2022-07-29T06:05:39;6.05;;;2.60;;
7829;SDS011;3960;51.86894000;5.39848000;2022-07-29T06:08:04;5.38;;;2.33;;
7829;SDS011;3960;51.86894000;5.39848000;2022-07-29T06:10:36;5.03;;;2.63;;
7829;SDS011;3960;51.86894000;5.39848000;2022-07-29T06:13:01;7.72;;;2.85;;
7829;SDS011;3960;51.86894000;5.39848000;2022-07-29T06:15:27;6.25;;;2.60;;
7829;SDS011;3960;51.86894000;5.39848000;2022-07-29T06:17:52;5.18;;;2.63;;
7829;SDS011;3960;51.86894000;5.39848000;2022-07-29T06:20:18;4.72;;;2.65;;
7829;SDS011;3960;51.86894000;5.39848000;2022-07-29T06:22:43;3.28;;;2.47;;
7829;SDS011;3960;51.86894000;5.39848000;2022-07-29T06:25:08;4.70;;;2.40;;
7829;SDS011;3960;51.86894000;5.39848000;2022-07-29T06:27:34;6.05;;;2.80;;
7829;SDS011;3960;51.86894000;5.39848000;2022-07-29T06:29:59;3.58;;;2.40;;
7829;SDS011;3960;51.86894000;5.39848000;2022-07-29T06:32:24;3.90;;;2.45;;
7829;SDS011;3960;51.86894000;5.39848000;2022-07-29T06:34:50;6.30;;;2.45;;
7829;SDS011;3960;51.86894000;5.39848000;2022-07-29T06:37:15;5.45;;;2.47;;
7829;SDS011;3960;51.86894000;5.39848000;2022-07-29T06:39:42;4.78;;;2.70;;
7829;SDS011;3960;51.86894000;5.39848000;2022-07-29T06:42:07;7.57;;;2.70;;
7829;SDS011;3960;51.86894000;5.39848000;2022-07-29T06:44:33;4.88;;;2.70;;
7829;SDS011;3960;51.86894000;5.39848000;2022-07-29T06:47:01;3.60;;;2.60;;
7829;SDS011;3960;51.86894000;5.39848000;2022-07-29T06:49:26;6.38;;;2.80;;
7829;SDS011;3960;51.86894000;5.39848000;2022-07-29T06:51:52;4.97;;;2.50;;
7829;SDS011;3960;51.86894000;5.39848000;2022-07-29T06:54:18;9.10;;;2.60;;
7829;SDS011;3960;51.86894000;5.39848000;2022-07-29T06:56:43;3.20;;;2.63;;
7829;SDS011;3960;51.86894000;5.39848000;2022-07-29T06:59:09;7.72;;;2.83;;
7829;SDS011;3960;51.86894000;5.39848000;2022-07-29T07:01:36;7.15;;;2.67;;
7829;SDS011;3960;51.86894000;5.39848000;2022-07-29T07:04:02;5.40;;;2.65;;
7829;SDS011;3960;51.86894000;5.39848000;2022-07-29T07:06:27;6.30;;;2.70;;
7829;SDS011;3960;51.86894000;5.39848000;2022-07-29T07:08:53;10.68;;;2.88;;
7829;SDS011;3960;51.86894000;5.39848000;2022-07-29T07:11:18;4.22;;;2.90;;
7829;SDS011;3960;51.86894000;5.39848000;2022-07-29T07:13:43;5.30;;;3.28;;
7829;SDS011;3960;51.86894000;5.39848000;2022-07-29T07:16:09;6.55;;;3.00;;
7829;SDS011;3960;51.86894000;5.39848000;2022-07-29T07:18:34;6.70;;;2.95;;
7829;SDS011;3960;51.86894000;5.39848000;2022-07-29T07:20:59;6.57;;;3.22;;
7829;SDS011;3960;51.86894000;5.39848000;2022-07-29T07:23:25;8.60;;;2.92;;
7829;SDS011;3960;51.86894000;5.39848000;2022-07-29T07:25:50;7.13;;;2.40;;
7829;SDS011;3960;51.86894000;5.39848000;2022-07-29T07:28:16;4.45;;;2.70;;
7829;SDS011;3960;51.86894000;5.39848000;2022-07-29T07:30:41;4.65;;;2.55;;
7829;SDS011;3960;51.86894000;5.39848000;2022-07-29T07:33:06;4.75;;;2.45;;
7829;SDS011;3960;51.86894000;5.39848000;2022-07-29T07:35:32;6.53;;;2.78;;
7829;SDS011;3960;51.86894000;5.39848000;2022-07-29T07:37:57;8.25;;;2.72;;
7829;SDS011;3960;51.86894000;5.39848000;2022-07-29T07:40:23;13.80;;;3.00;;
7829;SDS011;3960;51.86894000;5.39848000;2022-07-29T07:42:50;7.25;;;2.53;;
7829;SDS011;3960;51.86894000;5.39848000;2022-07-29T07:45:15;6.65;;;2.85;;
7829;SDS011;3960;51.86894000;5.39848000;2022-07-29T07:47:40;3.58;;;2.65;;
7829;SDS011;3960;51.86894000;5.39848000;2022-07-29T07:50:06;6.15;;;2.47;;
7829;SDS011;3960;51.86894000;5.39848000;2022-07-29T07:52:33;8.90;;;2.70;;
7829;SDS011;3960;51.86894000;5.39848000;2022-07-29T07:54:58;5.13;;;2.40;;
7829;SDS011;3960;51.86894000;5.39848000;2022-07-29T07:57:24;8.57;;;2.55;;
7829;SDS011;3960;51.86894000;5.39848000;2022-07-29T07:59:49;8.88;;;2.70;;
7829;SDS011;3960;51.86894000;5.39848000;2022-07-29T08:02:14;5.90;;;2.45;;
7829;SDS011;3960;51.86894000;5.39848000;2022-07-29T08:04:40;5.38;;;2.33;;
7829;SDS011;3960;51.86894000;5.39848000;2022-07-29T08:07:06;5.75;;;2.47;;
7829;SDS011;3960;51.86894000;5.39848000;2022-07-29T08:09:33;4.88;;;2.50;;
7829;SDS011;3960;51.86894000;5.39848000;2022-07-29T08:11:59;4.47;;;2.47;;
7829;SDS011;3960;51.86894000;5.39848000;2022-07-29T08:14:28;6.05;;;2.35;;
7829;SDS011;3960;51.86894000;5.39848000;2022-07-29T08:16:53;5.75;;;2.70;;
7829;SDS011;3960;51.86894000;5.39848000;2022-07-29T08:19:18;4.15;;;2.53;;
7829;SDS011;3960;51.86894000;5.39848000;2022-07-29T08:21:44;10.73;;;2.72;;
7829;SDS011;3960;51.86894000;5.39848000;2022-07-29T08:24:09;5.38;;;2.47;;
7829;SDS011;3960;51.86894000;5.39848000;2022-07-29T08:26:53;4.75;;;2.47;;
7829;SDS011;3960;51.86894000;5.39848000;2022-07-29T08:29:18;7.30;;;2.50;;
7829;SDS011;3960;51.86894000;5.39848000;2022-07-29T08:31:43;5.95;;;2.38;;
7829;SDS011;3960;51.86894000;5.39848000;2022-07-29T08:34:10;7.40;;;2.20;;
7829;SDS011;3960;51.86894000;5.39848000;2022-07-29T08:36:36;5.03;;;2.13;;
7829;SDS011;3960;51.86894000;5.39848000;2022-07-29T08:39:02;3.50;;;2.03;;
7829;SDS011;3960;51.86894000;5.39848000;2022-07-29T08:41:28;5.57;;;2.38;;
7829;SDS011;3960;51.86894000;5.39848000;2022-07-29T08:43:53;5.10;;;2.50;;
7829;SDS011;3960;51.86894000;5.39848000;2022-07-29T08:46:19;5.40;;;2.22;;
7829;SDS011;3960;51.86894000;5.39848000;2022-07-29T08:48:45;7.40;;;2.50;;
7829;SDS011;3960;51.86894000;5.39848000;2022-07-29T08:51:15;3.97;;;2.33;;
7829;SDS011;3960;51.86894000;5.39848000;2022-07-29T08:56:12;3.75;;;2.38;;
7829;SDS011;3960;51.86894000;5.39848000;2022-07-29T08:58:39;7.70;;;2.72;;
7829;SDS011;3960;51.86894000;5.39848000;2022-07-29T09:01:05;4.57;;;2.35;;
7829;SDS011;3960;51.86894000;5.39848000;2022-07-29T09:03:32;5.80;;;2.45;;
7829;SDS011;3960;51.86894000;5.39848000;2022-07-29T09:06:01;5.35;;;2.50;;
7829;SDS011;3960;51.86894000;5.39848000;2022-07-29T09:08:27;4.30;;;2.30;;
7829;SDS011;3960;51.86894000;5.39848000;2022-07-29T09:10:52;11.43;;;2.42;;
7829;SDS011;3960;51.86894000;5.39848000;2022-07-29T09:13:18;5.22;;;2.10;;
7829;SDS011;3960;51.86894000;5.39848000;2022-07-29T09:15:44;7.18;;;2.40;;
7829;SDS011;3960;51.86894000;5.39848000;2022-07-29T09:18:10;5.63;;;2.83;;
7829;SDS011;3960;51.86894000;5.39848000;2022-07-29T09:20:35;10.95;;;2.60;;
7829;SDS011;3960;51.86894000;5.39848000;2022-07-29T09:23:19;4.28;;;2.47;;
7829;SDS011;3960;51.86894000;5.39848000;2022-07-29T09:25:44;4.05;;;2.20;;
7829;SDS011;3960;51.86894000;5.39848000;2022-07-29T09:28:13;6.15;;;2.20;;
7829;SDS011;3960;51.86894000;5.39848000;2022-07-29T09:30:52;6.35;;;2.30;;
7829;SDS011;3960;51.86894000;5.39848000;2022-07-29T09:33:20;9.52;;;2.58;;
7829;SDS011;3960;51.86894000;5.39848000;2022-07-29T09:35:57;6.70;;;2.83;;
7829;SDS011;3960;51.86894000;5.39848000;2022-07-29T09:38:24;4.97;;;2.40;;
7829;SDS011;3960;51.86894000;5.39848000;2022-07-29T09:40:56;6.00;;;2.30;;
7829;SDS011;3960;51.86894000;5.39848000;2022-07-29T09:43:22;7.80;;;2.50;;
7829;SDS011;3960;51.86894000;5.39848000;2022-07-29T09:45:48;8.20;;;2.47;;
7829;SDS011;3960;51.86894000;5.39848000;2022-07-29T09:50:47;7.68;;;2.40;;
7829;SDS011;3960;51.86894000;5.39848000;2022-07-29T09:53:57;6.07;;;2.55;;
7829;SDS011;3960;51.86894000;5.39848000;2022-07-29T09:56:04;4.97;;;2.60;;
7829;SDS011;3960;51.86894000;5.39848000;2022-07-29T09:58:30;8.95;;;3.10;;
7829;SDS011;3960;51.86894000;5.39848000;2022-07-29T10:00:58;6.00;;;2.65;;
7829;SDS011;3960;51.86894000;5.39848000;2022-07-29T10:03:23;5.75;;;2.30;;
7829;SDS011;3960;51.86894000;5.39848000;2022-07-29T10:06:08;7.07;;;2.80;;
7829;SDS011;3960;51.86894000;5.39848000;2022-07-29T10:08:35;8.50;;;2.55;;
7829;SDS011;3960;51.86894000;5.39848000;2022-07-29T10:11:19;6.18;;;2.38;;
7829;SDS011;3960;51.86894000;5.39848000;2022-07-29T10:13:45;6.53;;;2.22;;
7829;SDS011;3960;51.86894000;5.39848000;2022-07-29T10:16:12;7.97;;;2.33;;
7829;SDS011;3960;51.86894000;5.39848000;2022-07-29T10:18:39;7.72;;;2.63;;
7829;SDS011;3960;51.86894000;5.39848000;2022-07-29T10:21:05;6.43;;;2.40;;
7829;SDS011;3960;51.86894000;5.39848000;2022-07-29T10:23:32;5.28;;;2.30;;
7829;SDS011;3960;51.86894000;5.39848000;2022-07-29T10:25:59;7.00;;;2.30;;
7829;SDS011;3960;51.86894000;5.39848000;2022-07-29T10:28:25;4.22;;;2.17;;
7829;SDS011;3960;51.86894000;5.39848000;2022-07-29T10:30:51;4.80;;;2.22;;
7829;SDS011;3960;51.86894000;5.39848000;2022-07-29T10:33:44;5.88;;;3.15;;
7829;SDS011;3960;51.86894000;5.39848000;2022-07-29T10:41:56;5.83;;;2.40;;
7829;SDS011;3960;51.86894000;5.39848000;2022-07-29T10:44:30;6.05;;;2.28;;
7829;SDS011;3960;51.86894000;5.39848000;2022-07-29T10:46:58;7.72;;;2.40;;
7829;SDS011;3960;51.86894000;5.39848000;2022-07-29T10:49:26;6.00;;;2.28;;
7829;SDS011;3960;51.86894000;5.39848000;2022-07-29T10:54:41;6.32;;;2.50;;
7829;SDS011;3960;51.86894000;5.39848000;2022-07-29T10:59:45;7.22;;;2.50;;
7829;SDS011;3960;51.86894000;5.39848000;2022-07-29T11:04:59;5.20;;;2.30;;
7829;SDS011;3960;51.86894000;5.39848000;2022-07-29T11:07:26;8.95;;;2.50;;
7829;SDS011;3960;51.86894000;5.39848000;2022-07-29T11:22:58;6.55;;;2.00;;
7829;SDS011;3960;51.86894000;5.39848000;2022-07-29T11:25:24;5.05;;;2.20;;
7829;SDS011;3960;51.86894000;5.39848000;2022-07-29T11:27:51;6.32;;;2.20;;
7829;SDS011;3960;51.86894000;5.39848000;2022-07-29T11:30:49;4.47;;;2.35;;
7829;SDS011;3960;51.86894000;5.39848000;2022-07-29T11:33:31;5.93;;;2.03;;
7829;SDS011;3960;51.86894000;5.39848000;2022-07-29T11:38:34;7.38;;;2.10;;
7829;SDS011;3960;51.86894000;5.39848000;2022-07-29T11:43:53;7.63;;;2.78;;
7829;SDS011;3960;51.86894000;5.39848000;2022-07-29T11:49:20;4.75;;;2.33;;
7829;SDS011;3960;51.86894000;5.39848000;2022-07-29T11:51:56;5.47;;;2.10;;
7829;SDS011;3960;51.86894000;5.39848000;2022-07-29T11:54:32;8.50;;;2.30;;
7829;SDS011;3960;51.86894000;5.39848000;2022-07-29T11:56:59;5.50;;;2.20;;
7829;SDS011;3960;51.86894000;5.39848000;2022-07-29T11:59:24;7.43;;;2.40;;
7829;SDS011;3960;51.86894000;5.39848000;2022-07-29T12:01:57;8.68;;;2.05;;
7829;SDS011;3960;51.86894000;5.39848000;2022-07-29T12:04:23;5.80;;;1.80;;
7829;SDS011;3960;51.86894000;5.39848000;2022-07-29T12:06:52;7.07;;;2.00;;
7829;SDS011;3960;51.86894000;5.39848000;2022-07-29T12:09:19;3.95;;;2.10;;
7829;SDS011;3960;51.86894000;5.39848000;2022-07-29T12:11:46;5.18;;;2.00;;
7829;SDS011;3960;51.86894000;5.39848000;2022-07-29T12:14:24;7.47;;;2.20;;
7829;SDS011;3960;51.86894000;5.39848000;2022-07-29T12:16:58;3.35;;;2.00;;
7829;SDS011;3960;51.86894000;5.39848000;2022-07-29T12:19:25;5.43;;;2.20;;
7829;SDS011;3960;51.86894000;5.39848000;2022-07-29T12:21:51;4.00;;;2.00;;
7829;SDS011;3960;51.86894000;5.39848000;2022-07-29T12:24:18;7.85;;;2.00;;
7829;SDS011;3960;51.86894000;5.39848000;2022-07-29T12:26:56;4.70;;;1.83;;
7829;SDS011;3960;51.86894000;5.39848000;2022-07-29T12:29:23;5.40;;;1.85;;
7829;SDS011;3960;51.86894000;5.39848000;2022-07-29T12:31:52;4.22;;;2.10;;
7829;SDS011;3960;51.86894000;5.39848000;2022-07-29T12:34:19;5.05;;;2.28;;
7829;SDS011;3960;51.86894000;5.39848000;2022-07-29T12:36:46;3.67;;;1.90;;
7829;SDS011;3960;51.86894000;5.39848000;2022-07-29T12:39:11;5.53;;;1.80;;
7829;SDS011;3960;51.86894000;5.39848000;2022-07-29T12:41:37;5.65;;;2.53;;
7829;SDS011;3960;51.86894000;5.39848000;2022-07-29T12:44:03;5.45;;;2.00;;
7829;SDS011;3960;51.86894000;5.39848000;2022-07-29T12:46:29;4.45;;;1.88;;
7829;SDS011;3960;51.86894000;5.39848000;2022-07-29T12:48:54;8.43;;;2.10;;
7829;SDS011;3960;51.86894000;5.39848000;2022-07-29T12:51:33;5.88;;;2.10;;
7829;SDS011;3960;51.86894000;5.39848000;2022-07-29T12:54:11;11.00;;;1.83;;
7829;SDS011;3960;51.86894000;5.39848000;2022-07-29T12:56:38;6.72;;;2.13;;
7829;SDS011;3960;51.86894000;5.39848000;2022-07-29T12:59:18;6.63;;;2.10;;
7829;SDS011;3960;51.86894000;5.39848000;2022-07-29T13:01:46;4.00;;;1.85;;
7829;SDS011;3960;51.86894000;5.39848000;2022-07-29T13:06:59;6.43;;;2.15;;
7829;SDS011;3960;51.86894000;5.39848000;2022-07-29T13:09:35;5.63;;;2.20;;
7829;SDS011;3960;51.86894000;5.39848000;2022-07-29T13:12:08;6.43;;;2.17;;
7829;SDS011;3960;51.86894000;5.39848000;2022-07-29T13:14:39;4.93;;;2.10;;
7829;SDS011;3960;51.86894000;5.39848000;2022-07-29T13:17:05;5.63;;;2.10;;
7829;SDS011;3960;51.86894000;5.39848000;2022-07-29T13:19:34;7.07;;;1.90;;
7829;SDS011;3960;51.86894000;5.39848000;2022-07-29T13:22:05;5.18;;;2.00;;
7829;SDS011;3960;51.86894000;5.39848000;2022-07-29T13:24:32;3.67;;;1.80;;
7829;SDS011;3960;51.86894000;5.39848000;2022-07-29T13:26:58;3.35;;;1.98;;
7829;SDS011;3960;51.86894000;5.39848000;2022-07-29T13:29:23;4.00;;;2.10;;
7829;SDS011;3960;51.86894000;5.39848000;2022-07-29T13:31:48;5.03;;;1.80;;
7829;SDS011;3960;51.86894000;5.39848000;2022-07-29T13:34:13;6.22;;;2.40;;
7829;SDS011;3960;51.86894000;5.39848000;2022-07-29T13:36:39;4.80;;;1.85;;
7829;SDS011;3960;51.86894000;5.39848000;2022-07-29T13:39:04;4.40;;;1.70;;
7829;SDS011;3960;51.86894000;5.39848000;2022-07-29T13:41:29;6.03;;;1.90;;
7829;SDS011;3960;51.86894000;5.39848000;2022-07-29T13:43:55;4.30;;;1.92;;
7829;SDS011;3960;51.86894000;5.39848000;2022-07-29T13:46:20;11.98;;;2.30;;
7829;SDS011;3960;51.86894000;5.39848000;2022-07-29T13:48:45;5.70;;;2.22;;
7829;SDS011;3960;51.86894000;5.39848000;2022-07-29T13:51:11;3.17;;;1.90;;
7829;SDS011;3960;51.86894000;5.39848000;2022-07-29T13:53:36;7.25;;;2.42;;
7829;SDS011;3960;51.86894000;5.39848000;2022-07-29T13:56:02;9.27;;;1.92;;
7829;SDS011;3960;51.86894000;5.39848000;2022-07-29T13:58:27;5.03;;;1.83;;
7829;SDS011;3960;51.86894000;5.39848000;2022-07-29T14:00:53;8.35;;;2.50;;
7829;SDS011;3960;51.86894000;5.39848000;2022-07-29T14:03:18;3.60;;;2.08;;